createdAt,value
2022-11-29T00:01:24.558Z,101198.56
2022-11-29T00:04:27.648Z,101200.31
2022-11-29T00:07:30.627Z,101194.59
2022-11-29T00:10:37.343Z,101192.84
2022-11-29T00:13:40.693Z,101193.06
2022-11-29T00:16:43.566Z,101195.47
2022-11-29T00:19:46.223Z,101194.19
2022-11-29T00:22:48.771Z,101188.69
2022-11-29T00:25:51.679Z,101188.59
2022-11-29T00:28:54.248Z,101185.31
2022-11-29T00:31:57.011Z,101175.66
2022-11-29T00:34:59.692Z,101173.09
2022-11-29T00:38:03.000Z,101171.31
2022-11-29T00:41:06.494Z,101176.41
2022-11-29T00:44:11.108Z,101176.38
2022-11-29T00:47:15.468Z,101177.75
2022-11-29T00:50:18.147Z,101171.69
2022-11-29T00:53:20.659Z,101178.69
2022-11-29T00:56:23.571Z,101175.75
2022-11-29T00:59:26.245Z,101182.34
2022-11-29T01:02:29.239Z,101176.94
2022-11-29T01:05:32.644Z,101180.97
2022-11-29T01:08:36.088Z,101172.31
2022-11-29T01:11:38.851Z,101177.69
2022-11-29T01:14:41.799Z,101173.25
2022-11-29T01:17:44.724Z,101167.06
2022-11-29T01:20:56.486Z,101185.66
2022-11-29T01:24:00.126Z,101174.38
2022-11-29T01:27:02.932Z,101171.16
2022-11-29T01:30:07.582Z,101170.72
2022-11-29T01:33:10.233Z,101168.66
2022-11-29T01:36:13.831Z,101170.59
2022-11-29T01:39:16.652Z,101165.81
2022-11-29T01:42:19.712Z,101166.94
2022-11-29T01:45:26.628Z,101165.47
2022-11-29T01:48:32.884Z,101162.94
2022-11-29T01:51:37.530Z,101169.69
2022-11-29T01:54:45.511Z,101164.97
2022-11-29T01:57:48.483Z,101164.53
2022-11-29T02:00:50.980Z,101158.00
2022-11-29T02:03:53.955Z,101156.53
2022-11-29T02:06:56.431Z,101156.53
2022-11-29T02:09:59.616Z,101163.06
2022-11-29T02:13:16.615Z,101161.31
2022-11-29T02:16:35.108Z,101159.19
2022-11-29T02:20:19.017Z,101159.41
2022-11-29T02:23:58.678Z,101162.25
2022-11-29T02:27:25.803Z,101151.63
2022-11-29T02:30:49.564Z,101162.00
2022-11-29T02:33:54.981Z,101162.69
2022-11-29T02:36:57.802Z,101162.25
2022-11-29T02:40:37.388Z,101167.41
2022-11-29T02:43:58.671Z,101164.53
2022-11-29T02:47:19.493Z,101159.75
2022-11-29T02:50:37.185Z,101167.28
2022-11-29T02:53:51.407Z,101167.63
2022-11-29T02:57:11.934Z,101158.03
2022-11-29T03:00:20.161Z,101172.31
2022-11-29T03:03:33.195Z,101164.78
2022-11-29T03:07:11.528Z,101173.25
2022-11-29T03:10:42.936Z,101178.47
2022-11-29T03:14:11.969Z,101175.75
2022-11-29T03:17:32.032Z,101183.63
2022-11-29T03:20:49.766Z,101181.81
2022-11-29T03:23:59.278Z,101178.34
2022-11-29T03:27:11.836Z,101169.44
2022-11-29T03:30:18.735Z,101172.06
2022-11-29T03:33:45.888Z,101174.81
2022-11-29T03:37:03.991Z,101169.34
2022-11-29T03:40:08.380Z,101173.25
2022-11-29T03:43:30.916Z,101179.75
2022-11-29T03:46:42.284Z,101186.59
2022-11-29T03:49:54.687Z,101179.72
2022-11-29T03:53:04.068Z,101181.53
2022-11-29T03:56:32.958Z,101180.75
2022-11-29T03:59:55.378Z,101179.84
2022-11-29T04:03:22.405Z,101180.41
2022-11-29T04:06:58.996Z,101184.19
2022-11-29T04:10:29.960Z,101175.59
2022-11-29T04:14:02.598Z,101172.66
2022-11-29T04:17:25.690Z,101175.50
2022-11-29T04:20:56.147Z,101172.66
2022-11-29T04:24:07.886Z,101172.44
2022-11-29T04:27:19.472Z,101174.34
2022-11-29T04:30:25.570Z,101175.59
2022-11-29T04:33:34.464Z,101176.78
2022-11-29T04:36:52.168Z,101177.22
2022-11-29T04:40:25.066Z,101178.34
2022-11-29T04:43:47.731Z,101186.22
2022-11-29T04:47:25.840Z,101185.31
2022-11-29T04:50:34.578Z,101183.75
2022-11-29T04:53:56.209Z,101189.00
2022-11-29T04:57:08.092Z,101185.09
2022-11-29T05:00:15.622Z,101183.16
2022-11-29T05:03:31.487Z,101186.81
2022-11-29T05:07:03.062Z,101192.31
2022-11-29T05:10:11.738Z,101194.34
2022-11-29T05:14:02.523Z,101193.19
2022-11-29T05:17:14.286Z,101193.06
2022-11-29T05:20:47.742Z,101195.25
2022-11-29T05:24:18.252Z,101198.81
2022-11-29T05:27:47.282Z,101191.47
2022-11-29T05:31:04.903Z,101193.19
2022-11-29T05:34:10.341Z,101200.06
2022-11-29T05:37:35.661Z,101196.06
2022-11-29T05:41:15.664Z,101199.94
2022-11-29T05:44:34.334Z,101201.56
2022-11-29T05:47:55.641Z,101202.44
2022-11-29T05:51:08.032Z,101203.81
2022-11-29T05:54:34.978Z,101208.50
2022-11-29T05:57:55.675Z,101213.06
2022-11-29T06:01:14.202Z,101215.81
2022-11-29T06:04:48.941Z,101222.66
2022-11-29T06:08:03.591Z,101220.97
2022-11-29T06:11:38.808Z,101226.56
2022-11-29T06:15:10.519Z,101214.78
2022-11-29T06:18:46.424Z,101226.22
2022-11-29T06:21:48.863Z,101220.69
2022-11-29T06:25:21.799Z,101222.75
2022-11-29T06:28:27.219Z,101223.09
2022-11-29T06:31:38.495Z,101220.34
2022-11-29T06:34:53.452Z,101223.19
2022-11-29T06:37:59.018Z,101224.22
2022-11-29T06:41:02.627Z,101237.81
2022-11-29T06:44:06.050Z,101243.09
2022-11-29T06:47:42.660Z,101256.13
2022-11-29T06:51:03.419Z,101249.72
2022-11-29T06:54:19.897Z,101242.75
2022-11-29T06:57:37.540Z,101240.34
2022-11-29T07:00:59.885Z,101245.38
2022-11-29T07:04:45.740Z,101244.22
2022-11-29T07:07:49.704Z,101244.94
2022-11-29T07:10:54.987Z,101235.09
2022-11-29T07:13:58.299Z,101238.75
2022-11-29T07:17:12.816Z,101249.25
2022-11-29T07:20:21.035Z,101235.66
2022-11-29T07:23:31.337Z,101236.25
2022-11-29T07:26:56.504Z,101236.50
2022-11-29T07:30:05.304Z,101247.31
2022-11-29T07:33:14.113Z,101250.06
2022-11-29T07:36:19.617Z,101248.81
2022-11-29T07:39:43.612Z,101253.94
2022-11-29T07:43:02.210Z,101251.44
2022-11-29T07:46:05.286Z,101248.69
2022-11-29T07:49:11.343Z,101253.97
2022-11-29T07:52:16.335Z,101255.06
2022-11-29T07:55:21.914Z,101241.69
2022-11-29T07:58:24.759Z,101252.34
2022-11-29T08:01:27.422Z,101250.97
2022-11-29T08:04:30.390Z,101251.66
2022-11-29T08:07:37.500Z,101249.94
2022-11-29T08:10:40.125Z,101249.66
2022-11-29T08:13:42.578Z,101246.72
2022-11-29T08:16:45.241Z,101247.75
2022-11-29T08:19:47.993Z,101246.50
2022-11-29T08:22:58.409Z,101249.22
2022-11-29T08:26:02.553Z,101240.94
2022-11-29T08:29:05.135Z,101248.88
2022-11-29T08:32:09.057Z,101252.81
2022-11-29T08:35:11.866Z,101247.56
2022-11-29T08:38:14.292Z,101254.38
2022-11-29T08:41:17.648Z,101255.56
2022-11-29T08:44:20.232Z,101251.78
2022-11-29T08:47:38.452Z,101258.59
2022-11-29T08:50:40.975Z,101266.44
2022-11-29T08:53:44.006Z,101253.09
2022-11-29T08:57:31.101Z,101256.50
2022-11-29T09:00:10.279Z,101257.81
2022-11-29T09:03:31.503Z,101264.38
2022-11-29T09:06:44.646Z,101267.19
2022-11-29T09:09:47.287Z,101259.28
2022-11-29T09:12:51.440Z,101255.34
2022-11-29T09:15:53.993Z,101254.13
2022-11-29T09:18:57.595Z,101248.13
2022-11-29T09:22:00.097Z,101250.59
2022-11-29T09:25:02.781Z,101247.81
2022-11-29T09:28:05.796Z,101247.97
2022-11-29T09:31:10.863Z,101249.50
2022-11-29T09:34:14.799Z,101245.75
2022-11-29T09:37:17.364Z,101240.00
2022-11-29T09:40:25.571Z,101236.13
2022-11-29T09:43:40.090Z,101239.78
2022-11-29T09:47:00.547Z,101244.66
2022-11-29T09:50:19.761Z,101240.00
2022-11-29T09:53:31.416Z,101242.81
2022-11-29T09:56:49.787Z,101227.53
2022-11-29T09:59:58.023Z,101231.38
2022-11-29T10:03:15.238Z,101223.63
2022-11-29T10:06:30.845Z,101225.09
2022-11-29T10:09:57.113Z,101217.00
2022-11-29T10:13:15.925Z,101213.28
2022-11-29T10:16:45.114Z,101217.50
2022-11-29T10:19:52.968Z,101207.56
2022-11-29T10:23:26.352Z,101208.44
2022-11-29T10:26:34.790Z,101208.69
2022-11-29T10:29:38.791Z,101204.16
2022-11-29T10:32:44.127Z,101194.09
2022-11-29T10:35:51.107Z,101199.06
2022-11-29T10:38:59.643Z,101194.19
2022-11-29T10:42:04.106Z,101195.22
2022-11-29T10:45:21.423Z,101199.06
2022-11-29T10:48:33.971Z,101192.13
2022-11-29T10:51:36.602Z,101191.09
2022-11-29T10:54:42.624Z,101189.31
2022-11-29T10:58:16.814Z,101182.06
2022-11-29T11:01:19.637Z,101186.44
2022-11-29T11:04:30.040Z,101175.34
2022-11-29T11:07:36.068Z,101174.06
2022-11-29T11:10:39.404Z,101170.06
2022-11-29T11:13:42.702Z,101170.06
2022-11-29T11:16:45.494Z,101172.41
2022-11-29T11:19:58.279Z,101169.63
2022-11-29T11:23:04.617Z,101167.44
2022-11-29T11:26:10.382Z,101169.47
2022-11-29T11:29:25.651Z,101171.53
2022-11-29T11:32:28.799Z,101163.13
2022-11-29T11:35:32.559Z,101168.69
2022-11-29T11:38:37.649Z,101171.28
2022-11-29T11:42:02.544Z,101168.38
2022-11-29T11:45:05.223Z,101176.84
2022-11-29T11:48:16.322Z,101170.59
2022-11-29T11:51:23.333Z,101168.50
2022-11-29T11:54:27.164Z,101173.00
2022-11-29T11:57:31.158Z,101173.19
2022-11-29T12:04:15.080Z,101175.06
2022-11-29T12:08:05.740Z,101168.91
2022-11-29T12:11:02.715Z,101164.44
2022-11-29T12:14:15.865Z,101167.34
2022-11-29T12:17:37.827Z,101168.50
2022-11-29T12:21:07.371Z,101169.81
2022-11-29T12:24:34.523Z,101159.88
2022-11-29T12:27:37.211Z,101159.34
2022-11-29T12:31:04.490Z,101152.16
2022-11-29T12:34:34.690Z,101151.56
2022-11-29T12:38:02.076Z,101150.13
2022-11-29T12:41:18.703Z,101140.72
2022-11-29T12:44:50.611Z,101142.38
2022-11-29T12:48:02.415Z,101133.41
2022-11-29T12:51:18.863Z,101133.28
2022-11-29T12:54:40.215Z,101139.38
2022-11-29T12:58:20.635Z,101127.81
2022-11-29T13:01:35.548Z,101132.81
2022-11-29T13:04:46.679Z,101137.38
2022-11-29T13:08:01.495Z,101131.94
2022-11-29T13:11:14.672Z,101130.09
2022-11-29T13:14:43.959Z,101135.44
2022-11-29T13:18:11.731Z,101141.53
2022-11-29T13:21:47.563Z,101148.19
2022-11-29T13:25:13.368Z,101148.19
2022-11-29T13:28:25.510Z,101147.91
2022-11-29T13:31:29.026Z,101150.28
2022-11-29T13:34:41.725Z,101139.94
2022-11-29T13:37:55.361Z,101137.59
2022-11-29T13:41:11.451Z,101142.06
2022-11-29T13:44:19.897Z,101142.63
2022-11-29T13:47:22.507Z,101138.38
2022-11-29T13:50:41.376Z,101142.09
2022-11-29T13:53:48.807Z,101146.53
2022-11-29T13:57:08.364Z,101140.47
2022-11-29T14:00:33.072Z,101148.19
2022-11-29T14:03:41.024Z,101157.41
2022-11-29T14:06:47.924Z,101165.03
2022-11-29T14:10:00.886Z,101181.84
2022-11-29T14:13:05.216Z,101179.25
2022-11-29T14:16:19.407Z,101183.25
2022-11-29T14:19:36.185Z,101185.44
2022-11-29T14:23:04.607Z,101191.53
2022-11-29T14:26:07.121Z,101184.84
2022-11-29T14:29:58.689Z,101189.50
2022-11-29T14:33:18.054Z,101183.34
2022-11-29T14:36:45.688Z,101187.22
2022-11-29T14:39:52.904Z,101197.63
2022-11-29T14:42:55.458Z,101190.28
2022-11-29T14:46:30.764Z,101194.19
2022-11-29T14:49:44.944Z,101188.81
2022-11-29T14:52:51.379Z,101193.88
2022-11-29T14:56:32.028Z,101185.06
2022-11-29T14:59:49.379Z,101190.66
2022-11-29T15:03:02.564Z,101187.47
2022-11-29T15:06:26.854Z,101185.03
2022-11-29T15:09:33.770Z,101178.88
2022-11-29T15:12:38.072Z,101186.34
2022-11-29T15:16:02.989Z,101183.16
2022-11-29T15:19:37.691Z,101178.88
2022-11-29T15:22:48.203Z,101181.78
2022-11-29T15:25:59.694Z,101172.38
2022-11-29T15:29:29.800Z,101171.31
2022-11-29T15:32:33.103Z,101180.41
2022-11-29T15:35:37.191Z,101181.28
2022-11-29T15:38:54.880Z,101180.06
2022-11-29T15:42:19.531Z,101180.78
2022-11-29T15:45:36.841Z,101181.00
2022-11-29T15:48:39.628Z,101188.53
2022-11-29T15:51:43.263Z,101191.88
2022-11-29T15:54:57.073Z,101193.03
2022-11-29T15:58:08.352Z,101205.03
2022-11-29T16:01:20.951Z,101205.09
2022-11-29T16:04:24.576Z,101206.97
2022-11-29T16:07:32.804Z,101202.72
2022-11-29T16:10:46.229Z,101198.66
2022-11-29T16:14:03.009Z,101200.72
2022-11-29T16:17:05.850Z,101195.34
2022-11-29T16:20:14.646Z,101194.22
2022-11-29T16:23:17.229Z,101185.31
2022-11-29T16:26:32.928Z,101185.19
2022-11-29T16:29:45.134Z,101204.38
2022-11-29T16:33:03.613Z,101202.78
2022-11-29T16:36:26.600Z,101209.97
2022-11-29T16:39:29.835Z,101209.41
2022-11-29T16:42:33.679Z,101210.66
2022-11-29T16:45:41.143Z,101205.56
2022-11-29T16:48:44.022Z,101206.69
2022-11-29T16:51:48.728Z,101211.00
2022-11-29T16:54:51.478Z,101216.03
2022-11-29T16:57:54.480Z,101211.00
2022-11-29T17:00:57.194Z,101218.78
2022-11-29T17:04:00.772Z,101213.97
2022-11-29T17:07:03.389Z,101214.44
2022-11-29T17:10:13.600Z,101216.91
2022-11-29T17:13:16.285Z,101219.41
2022-11-29T17:16:21.659Z,101219.03
2022-11-29T17:19:24.575Z,101223.41
2022-11-29T17:22:27.487Z,101227.97
2022-11-29T17:25:30.180Z,101234.63
2022-11-29T17:28:33.503Z,101230.69
2022-11-29T17:31:37.626Z,101236.16
2022-11-29T17:34:40.404Z,101237.31
2022-11-29T17:37:42.879Z,101232.06
2022-11-29T17:40:46.271Z,101232.38
2022-11-29T17:43:50.035Z,101232.16
2022-11-29T17:46:52.790Z,101232.06
2022-11-29T17:49:55.704Z,101242.63
2022-11-29T17:52:58.549Z,101240.22
2022-11-29T17:56:15.813Z,101248.97
2022-11-29T17:59:18.972Z,101242.47
2022-11-29T18:02:22.876Z,101237.06
2022-11-29T18:05:30.134Z,101237.94
2022-11-29T18:08:45.437Z,101239.63
2022-11-29T18:11:50.121Z,101254.94
2022-11-29T18:14:53.077Z,101256.47
2022-11-29T18:18:03.233Z,101250.09
2022-11-29T18:21:08.088Z,101257.97
2022-11-29T18:24:11.125Z,101258.50
2022-11-29T18:27:14.050Z,101260.81
2022-11-29T18:30:17.122Z,101257.22
2022-11-29T18:33:20.264Z,101264.75
2022-11-29T18:36:26.305Z,101249.16
2022-11-29T18:39:29.689Z,101257.56
2022-11-29T18:42:32.911Z,101257.78
2022-11-29T18:45:36.672Z,101254.81
2022-11-29T18:48:40.572Z,101254.78
2022-11-29T18:51:45.411Z,101260.97
2022-11-29T18:54:48.796Z,101264.81
2022-11-29T18:57:53.803Z,101268.91
2022-11-29T19:01:09.585Z,101267.69
2022-11-29T19:04:21.670Z,101264.75
2022-11-29T19:07:24.720Z,101265.50
2022-11-29T19:10:27.520Z,101258.69
2022-11-29T19:13:30.652Z,101255.88
2022-11-29T19:16:34.534Z,101252.53
2022-11-29T19:19:37.868Z,101256.91
2022-11-29T19:22:40.765Z,101256.41
2022-11-29T19:25:43.858Z,101241.50
2022-11-29T19:28:47.279Z,101248.19
2022-11-29T19:31:50.703Z,101241.84
2022-11-29T19:34:53.478Z,101245.81
2022-11-29T19:37:56.522Z,101244.56
2022-11-29T19:40:59.200Z,101233.31
2022-11-29T19:44:07.915Z,101239.91
2022-11-29T19:47:10.616Z,101246.72
2022-11-29T19:50:13.792Z,101249.78
2022-11-29T19:53:17.263Z,101253.66
2022-11-29T19:56:20.785Z,101260.34
2022-11-29T19:59:24.523Z,101250.44
2022-11-29T20:02:29.351Z,101246.97
2022-11-29T20:05:34.391Z,101253.50
2022-11-29T20:08:38.266Z,101261.00
2022-11-29T20:11:42.744Z,101256.13
2022-11-29T20:14:45.902Z,101251.03
2022-11-29T20:17:48.528Z,101256.91
2022-11-29T20:20:54.067Z,101249.56
2022-11-29T20:23:58.755Z,101264.50
2022-11-29T20:27:01.586Z,101258.41
2022-11-29T20:30:04.852Z,101263.84
2022-11-29T20:33:10.442Z,101251.13
2022-11-29T20:36:16.278Z,101250.81
2022-11-29T20:39:39.299Z,101255.66
2022-11-29T20:43:06.025Z,101253.47
2022-11-29T20:46:09.447Z,101254.66
2022-11-29T20:49:17.298Z,101252.91
2022-11-29T20:52:38.714Z,101254.78
2022-11-29T20:55:47.751Z,101256.59
2022-11-29T20:58:51.080Z,101248.81
2022-11-29T21:01:54.346Z,101247.31
2022-11-29T21:04:57.631Z,101244.47
2022-11-29T21:08:00.314Z,101238.88
2022-11-29T21:11:06.853Z,101246.34
2022-11-29T21:14:09.696Z,101246.63
2022-11-29T21:17:13.011Z,101244.16
2022-11-29T21:20:22.738Z,101245.31
2022-11-29T21:24:08.191Z,101244.75
2022-11-29T21:27:18.599Z,101248.16
2022-11-29T21:30:24.241Z,101242.19
2022-11-29T21:33:27.464Z,101249.00
2022-11-29T21:36:30.678Z,101248.44
2022-11-29T21:39:34.549Z,101254.25
2022-11-29T21:42:38.156Z,101258.59
2022-11-29T21:45:40.688Z,101255.75
2022-11-29T21:48:44.660Z,101253.94
2022-11-29T21:51:50.424Z,101257.88
2022-11-29T21:54:52.983Z,101258.72
2022-11-29T21:57:55.549Z,101264.56
2022-11-29T22:01:09.775Z,101269.19
2022-11-29T22:04:13.172Z,101266.88
2022-11-29T22:07:16.209Z,101271.59
2022-11-29T22:10:18.733Z,101264.56
2022-11-29T22:13:21.750Z,101264.16
2022-11-29T22:16:24.526Z,101256.50
2022-11-29T22:19:30.946Z,101249.50
2022-11-29T22:22:33.596Z,101259.56
2022-11-29T22:25:36.156Z,101263.91
2022-11-29T22:28:39.238Z,101260.25
2022-11-29T22:31:43.973Z,101263.88
2022-11-29T22:34:46.857Z,101261.22
2022-11-29T22:37:49.888Z,101263.53
2022-11-29T22:40:52.395Z,101270.84
2022-11-29T22:43:55.635Z,101259.97
2022-11-29T22:46:58.160Z,101258.38
2022-11-29T22:50:01.079Z,101258.59
2022-11-29T22:53:05.177Z,101250.84
2022-11-29T22:56:10.915Z,101253.19
2022-11-29T22:59:14.102Z,101252.44
2022-11-29T23:02:16.822Z,101241.41
2022-11-29T23:05:19.423Z,101245.13
2022-11-29T23:08:22.470Z,101238.88
2022-11-29T23:11:27.671Z,101239.06
2022-11-29T23:14:30.470Z,101243.00
2022-11-29T23:17:32.944Z,101234.97
2022-11-29T23:20:37.691Z,101236.72
2022-11-29T23:23:40.922Z,101232.75
2022-11-29T23:26:47.472Z,101230.13
2022-11-29T23:29:49.929Z,101236.41
2022-11-29T23:32:52.891Z,101231.00
2022-11-29T23:36:04.746Z,101215.13
2022-11-29T23:39:08.210Z,101223.28
2022-11-29T23:42:10.710Z,101216.00
2022-11-29T23:45:13.521Z,101218.44
2022-11-29T23:48:16.364Z,101218.00
2022-11-29T23:51:19.855Z,101217.03
2022-11-29T23:54:23.123Z,101219.63
2022-11-29T23:57:25.851Z,101224.31
